Time;durP1;ratioP1;P1;durP2;ratioP2;P2;SDS_P1;SDS_P2;PMS_P1;PMS_P2;Temp;Humidity;BMP_temperature;BMP_pressure;BME280_temperature;BME280_humidity;BME280_pressure;Samples;Min_cycle;Max_cycle;Signal;HPM_P1;HPM_P2
2023/11/29 00:01:07;;;;;;;13.95;8.77;;;2.90;99.90;;;;;;4167200;28;20410;-72
2023/11/29 00:03:08;;;;;;;11.48;7.35;;;2.90;99.90;;;;;;4173641;28;20029;-70
2023/11/29 00:05:10;;;;;;;17.15;8.35;;;3.00;99.90;;;;;;4168286;28;20504;-73
2023/11/29 00:07:10;;;;;;;16.02;8.05;;;2.90;99.90;;;;;;4165748;28;20557;-73
2023/11/29 00:09:11;;;;;;;16.75;9.82;;;2.90;99.90;;;;;;4169261;28;20112;-71
2023/11/29 00:11:12;;;;;;;13.23;7.57;;;2.90;99.90;;;;;;4144780;28;20033;-72
2023/11/29 00:13:13;;;;;;;14.52;8.02;;;2.90;99.90;;;;;;4168989;28;20131;-72
2023/11/29 00:15:13;;;;;;;17.70;7.93;;;2.90;99.90;;;;;;4165965;28;20035;-73
2023/11/29 00:17:14;;;;;;;15.02;8.13;;;3.00;99.90;;;;;;4171950;28;20099;-71
2023/11/29 00:19:15;;;;;;;14.48;8.13;;;3.00;99.90;;;;;;4164445;28;20483;-71
2023/11/29 00:21:15;;;;;;;14.60;8.38;;;2.90;99.90;;;;;;4163692;28;20079;-72
2023/11/29 00:23:16;;;;;;;18.48;8.45;;;2.90;99.90;;;;;;4166647;28;20574;-74
2023/11/29 00:25:17;;;;;;;15.38;8.50;;;3.00;99.90;;;;;;4167616;28;20450;-74
2023/11/29 00:27:17;;;;;;;13.60;8.43;;;3.00;99.90;;;;;;4166953;28;20504;-74
2023/11/29 00:29:18;;;;;;;15.35;8.55;;;3.00;99.90;;;;;;4165734;28;20057;-73
2023/11/29 00:31:18;;;;;;;14.23;8.25;;;3.00;99.90;;;;;;4169786;28;20098;-74
2023/11/29 00:33:19;;;;;;;16.25;7.93;;;3.00;99.90;;;;;;4147938;28;20034;-73
2023/11/29 00:35:23;;;;;;;17.00;8.25;;;3.00;99.90;;;;;;4165868;28;20483;-73
2023/11/29 00:37:24;;;;;;;14.30;7.85;;;2.90;99.90;;;;;;4168324;28;20509;-73
2023/11/29 00:39:24;;;;;;;13.15;7.32;;;3.00;99.90;;;;;;4166048;28;20120;-73
2023/11/29 00:41:25;;;;;;;16.88;8.25;;;3.00;99.90;;;;;;4168249;28;20029;-74
2023/11/29 00:43:26;;;;;;;13.07;7.88;;;3.00;99.90;;;;;;4151914;28;20117;-73
2023/11/29 00:45:27;;;;;;;16.20;8.02;;;3.00;99.90;;;;;;4168215;28;20060;-73
2023/11/29 00:47:27;;;;;;;14.43;7.65;;;3.00;99.90;;;;;;4169509;28;20168;-73
2023/11/29 00:49:28;;;;;;;15.23;8.70;;;3.00;99.90;;;;;;4165710;28;20748;-73
2023/11/29 00:51:29;;;;;;;13.45;7.65;;;3.00;99.90;;;;;;4170236;28;20033;-73
2023/11/29 00:53:30;;;;;;;14.35;7.45;;;3.00;99.90;;;;;;4172441;28;20071;-73
2023/11/29 00:55:30;;;;;;;14.80;8.07;;;3.00;99.90;;;;;;4150868;28;20104;-73
2023/11/29 00:57:31;;;;;;;14.95;8.60;;;2.90;99.90;;;;;;4168533;28;20379;-72
2023/11/29 00:59:32;;;;;;;15.57;8.25;;;2.90;99.90;;;;;;4133910;28;20400;-73
2023/11/29 01:01:32;;;;;;;12.88;7.57;;;2.90;99.90;;;;;;4170516;28;20037;-73
2023/11/29 01:03:33;;;;;;;14.77;8.10;;;2.90;99.90;;;;;;4172542;28;20506;-73
2023/11/29 01:05:33;;;;;;;13.15;7.65;;;2.90;99.90;;;;;;4168378;28;20021;-73
2023/11/29 01:07:34;;;;;;;16.13;8.18;;;2.90;99.90;;;;;;4166921;28;20394;-73
2023/11/29 01:09:35;;;;;;;12.63;7.88;;;2.90;99.90;;;;;;4168108;28;20648;-73
2023/11/29 01:11:36;;;;;;;13.30;8.05;;;2.90;99.90;;;;;;4163919;28;20580;-73
2023/11/29 01:13:36;;;;;;;14.15;8.30;;;2.90;99.90;;;;;;4172916;28;20494;-73
2023/11/29 01:15:37;;;;;;;14.90;8.45;;;2.90;99.90;;;;;;4167732;28;20128;-73
2023/11/29 01:17:37;;;;;;;13.52;7.65;;;2.80;99.90;;;;;;4167809;28;20040;-73
2023/11/29 01:19:38;;;;;;;13.02;7.82;;;2.90;99.90;;;;;;4164530;28;20026;-73
2023/11/29 01:21:38;;;;;;;19.13;8.77;;;2.80;99.90;;;;;;4134495;28;20034;-73
2023/11/29 01:23:39;;;;;;;15.82;8.15;;;2.80;99.90;;;;;;4166729;28;20029;-73
2023/11/29 01:25:40;;;;;;;13.15;7.78;;;2.80;99.90;;;;;;4164766;28;20037;-73
2023/11/29 01:27:41;;;;;;;14.38;8.10;;;2.80;99.90;;;;;;4170282;28;20376;-73
2023/11/29 01:29:41;;;;;;;16.17;8.25;;;2.80;99.90;;;;;;4169746;28;20056;-73
2023/11/29 01:31:42;;;;;;;15.70;8.63;;;2.80;99.90;;;;;;4167177;28;20126;-73
2023/11/29 01:33:42;;;;;;;13.95;8.13;;;2.80;99.90;;;;;;4171747;28;20025;-73
2023/11/29 01:35:43;;;;;;;11.88;7.68;;;2.70;99.90;;;;;;4166264;28;20078;-73
2023/11/29 01:37:44;;;;;;;15.13;8.10;;;2.80;99.90;;;;;;4160108;28;21036;-73
2023/11/29 01:39:46;;;;;;;12.75;7.47;;;2.80;99.90;;;;;;4150328;28;20566;-73
2023/11/29 01:41:47;;;;;;;15.07;7.72;;;2.80;99.90;;;;;;4146705;28;20030;-73
2023/11/29 01:43:48;;;;;;;14.63;8.23;;;2.80;99.90;;;;;;4165600;28;20079;-73
2023/11/29 01:45:49;;;;;;;13.23;7.70;;;2.80;99.90;;;;;;4169093;28;20115;-72
2023/11/29 01:47:50;;;;;;;14.32;8.77;;;2.80;99.90;;;;;;4150061;28;20037;-73
2023/11/29 01:49:51;;;;;;;15.98;8.10;;;2.80;99.90;;;;;;4167893;28;20383;-72
2023/11/29 01:51:51;;;;;;;15.02;9.15;;;2.80;99.90;;;;;;4152997;28;20029;-73
2023/11/29 01:53:55;;;;;;;15.55;8.90;;;2.80;99.90;;;;;;4150974;28;20120;-71
2023/11/29 01:55:57;;;;;;;14.30;8.63;;;2.70;99.90;;;;;;4164772;28;20033;-71
2023/11/29 01:57:58;;;;;;;12.38;7.90;;;2.80;99.90;;;;;;4171031;28;20538;-71
2023/11/29 01:59:58;;;;;;;12.93;7.78;;;2.80;99.90;;;;;;4153193;28;20030;-71
2023/11/29 02:01:59;;;;;;;15.23;8.43;;;2.90;99.90;;;;;;4163371;28;20517;-70
2023/11/29 02:04:00;;;;;;;13.35;8.07;;;2.90;99.90;;;;;;4169682;28;20047;-73
2023/11/29 02:06:00;;;;;;;14.57;8.73;;;3.00;99.90;;;;;;4148984;28;20368;-71
2023/11/29 02:08:01;;;;;;;13.18;8.07;;;3.00;99.90;;;;;;4152756;28;20132;-72
2023/11/29 02:10:04;;;;;;;13.73;8.10;;;3.00;99.90;;;;;;4166670;28;20040;-71
2023/11/29 02:12:07;;;;;;;15.10;8.60;;;3.00;99.90;;;;;;4149920;28;20041;-71
2023/11/29 02:14:07;;;;;;;;;;;3.00;99.90;;;;;;4168081;28;21056;-71
2023/11/29 02:16:08;;;;;;;18.48;9.25;;;3.10;99.90;;;;;;4159895;28;19913;-71
2023/11/29 02:18:09;;;;;;;15.32;8.60;;;3.10;99.90;;;;;;4159283;28;20395;-73
2023/11/29 02:20:13;;;;;;;15.80;9.88;;;3.10;99.90;;;;;;4176181;28;20033;-73
2023/11/29 02:22:16;;;;;;;15.15;8.75;;;3.20;99.90;;;;;;4169036;28;20047;-72
2023/11/29 02:24:24;;;;;;;14.90;9.27;;;3.20;99.90;;;;;;4176044;28;20049;-72
2023/11/29 02:26:24;;;;;;;17.38;9.85;;;3.30;99.90;;;;;;4167077;28;20057;-71
2023/11/29 02:28:25;;;;;;;14.70;9.27;;;3.30;99.90;;;;;;4157497;28;20060;-71
2023/11/29 02:30:26;;;;;;;13.40;8.73;;;3.30;99.90;;;;;;4167109;28;20029;-71
2023/11/29 02:32:27;;;;;;;13.47;8.30;;;3.30;99.90;;;;;;4170886;28;20094;-71
2023/11/29 02:34:28;;;;;;;12.73;8.30;;;3.30;99.90;;;;;;4176448;28;20406;-71
2023/11/29 02:36:29;;;;;;;14.30;7.75;;;3.30;99.90;;;;;;4171417;28;20501;-71
2023/11/29 02:38:30;;;;;;;13.82;8.90;;;3.40;99.90;;;;;;4165041;28;20414;-72
2023/11/29 02:40:30;;;;;;;15.73;8.80;;;3.40;99.90;;;;;;4169867;28;20037;-71
2023/11/29 02:42:31;;;;;;;15.40;8.88;;;3.40;99.90;;;;;;4170085;28;20833;-72
2023/11/29 02:44:32;;;;;;;16.35;8.93;;;3.40;99.90;;;;;;4170679;28;20494;-71
2023/11/29 02:46:32;;;;;;;16.30;8.90;;;3.40;99.90;;;;;;4166796;28;20112;-72
2023/11/29 02:48:33;;;;;;;15.00;9.43;;;3.50;99.90;;;;;;4175035;28;20455;-72
2023/11/29 02:50:33;;;;;;;15.98;9.43;;;3.50;99.90;;;;;;4152163;28;20038;-71
2023/11/29 02:52:34;;;;;;;12.80;8.32;;;3.40;99.90;;;;;;4156007;28;20037;-72
2023/11/29 02:54:36;;;;;;;15.52;9.25;;;3.50;99.90;;;;;;4146800;28;20030;-72
2023/11/29 02:56:36;;;;;;;13.93;8.30;;;3.50;99.90;;;;;;4157194;28;20042;-72
2023/11/29 02:58:37;;;;;;;14.60;8.60;;;3.50;99.90;;;;;;4173395;28;20075;-71
2023/11/29 03:00:37;;;;;;;15.07;8.85;;;3.50;99.90;;;;;;4169502;28;20096;-72
2023/11/29 03:02:38;;;;;;;15.73;8.70;;;3.50;99.90;;;;;;4173619;28;20049;-73
2023/11/29 03:04:39;;;;;;;16.73;9.52;;;3.50;99.90;;;;;;4171733;28;20133;-72
2023/11/29 03:06:40;;;;;;;18.95;10.18;;;3.50;99.90;;;;;;4174169;28;20518;-72
2023/11/29 03:08:40;;;;;;;15.55;9.15;;;3.50;99.90;;;;;;4176171;28;20090;-72
2023/11/29 03:10:41;;;;;;;15.57;9.18;;;3.40;99.90;;;;;;4169262;28;20398;-72
2023/11/29 03:12:41;;;;;;;15.63;8.40;;;3.40;99.90;;;;;;4172966;28;20562;-71
2023/11/29 03:14:42;;;;;;;14.07;8.02;;;3.40;99.90;;;;;;4175018;28;20033;-72
2023/11/29 03:16:43;;;;;;;14.07;8.80;;;3.30;99.90;;;;;;4153895;28;20059;-72
2023/11/29 03:18:43;;;;;;;14.98;8.88;;;3.20;99.90;;;;;;4157620;28;20781;-72
2023/11/29 03:20:44;;;;;;;19.85;9.75;;;3.10;99.90;;;;;;4171890;28;20132;-71
2023/11/29 03:22:44;;;;;;;15.93;9.75;;;3.10;99.90;;;;;;4154312;28;20136;-73
2023/11/29 03:24:46;;;;;;;18.27;9.75;;;3.10;99.90;;;;;;4175548;28;20128;-72
2023/11/29 03:26:47;;;;;;;17.13;10.00;;;3.00;99.90;;;;;;4169783;28;20049;-72
2023/11/29 03:28:47;;;;;;;16.35;9.05;;;3.00;99.90;;;;;;4167412;28;20440;-72
2023/11/29 03:30:48;;;;;;;17.55;10.50;;;2.90;99.90;;;;;;4168394;28;20491;-72
2023/11/29 03:32:49;;;;;;;16.75;9.95;;;2.90;99.90;;;;;;4169641;28;20093;-72
2023/11/29 03:34:49;;;;;;;16.92;10.35;;;2.90;99.90;;;;;;4167980;28;20029;-72
2023/11/29 03:36:50;;;;;;;19.15;10.15;;;2.90;99.90;;;;;;4172359;28;20041;-72
2023/11/29 03:38:53;;;;;;;18.52;10.48;;;2.80;99.90;;;;;;4150189;28;20029;-72
2023/11/29 03:40:54;;;;;;;18.33;9.20;;;2.80;99.90;;;;;;4170386;28;20086;-72
2023/11/29 03:42:54;;;;;;;14.82;9.07;;;2.80;99.90;;;;;;4168305;28;20029;-72
2023/11/29 03:44:55;;;;;;;16.60;10.07;;;2.80;99.90;;;;;;4154158;28;20478;-72
2023/11/29 03:46:56;;;;;;;19.60;9.73;;;2.80;99.90;;;;;;4167108;28;20497;-72
2023/11/29 03:48:56;;;;;;;17.73;10.50;;;2.80;99.90;;;;;;4170699;28;20036;-72
2023/11/29 03:50:59;;;;;;;15.40;9.52;;;2.70;99.90;;;;;;4154820;28;20037;-72
2023/11/29 03:52:59;;;;;;;;;;;2.70;99.90;;;;;;4170673;28;20483;-72
2023/11/29 03:55:01;;;;;;;16.23;9.93;;;2.70;99.90;;;;;;4165655;28;19916;-73
2023/11/29 03:57:02;;;;;;;18.50;10.47;;;2.70;99.90;;;;;;4149794;28;20087;-72
2023/11/29 03:59:02;;;;;;;16.55;8.93;;;2.80;99.90;;;;;;4166390;28;20354;-73
2023/11/29 04:01:03;;;;;;;14.93;8.85;;;2.70;99.90;;;;;;4167366;28;20151;-73
2023/11/29 04:03:03;;;;;;;12.88;8.75;;;2.70;99.90;;;;;;4168146;28;20057;-73
2023/11/29 04:05:04;;;;;;;15.55;9.25;;;2.70;99.90;;;;;;4166298;28;20032;-72
2023/11/29 04:07:05;;;;;;;16.58;10.30;;;2.70;99.90;;;;;;4167271;28;20037;-73
2023/11/29 04:09:06;;;;;;;16.73;10.50;;;2.70;99.90;;;;;;4149507;28;20038;-72
2023/11/29 04:11:10;;;;;;;18.77;10.75;;;2.80;99.90;;;;;;4166653;28;20638;-73
2023/11/29 04:13:10;;;;;;;16.75;10.38;;;2.70;99.90;;;;;;4167857;28;20095;-72
2023/11/29 04:15:11;;;;;;;18.75;10.80;;;2.70;99.90;;;;;;4169807;28;20486;-74
2023/11/29 04:17:12;;;;;;;18.48;11.10;;;2.70;99.90;;;;;;4151763;28;20081;-74
2023/11/29 04:19:12;;;;;;;18.98;10.85;;;2.70;99.90;;;;;;4165105;28;20544;-74
2023/11/29 04:21:30;;;;;;;16.52;10.43;;;2.60;99.90;;;;;;4167293;28;20482;-74
2023/11/29 04:23:31;;;;;;;17.63;10.27;;;2.60;99.90;;;;;;4169313;28;20029;-74
2023/11/29 04:25:32;;;;;;;15.80;9.82;;;2.60;99.90;;;;;;4153702;28;20033;-74
2023/11/29 04:27:32;;;;;;;15.88;9.10;;;2.60;99.90;;;;;;4154236;28;20036;-74
2023/11/29 04:29:33;;;;;;;15.65;9.95;;;2.60;99.90;;;;;;4152463;28;20053;-74
2023/11/29 04:31:35;;;;;;;16.10;9.32;;;2.60;99.90;;;;;;4154682;28;20368;-74
2023/11/29 04:33:35;;;;;;;16.05;9.40;;;2.70;99.90;;;;;;4148092;28;20438;-74
2023/11/29 04:35:36;;;;;;;15.43;9.98;;;2.70;99.90;;;;;;4155239;28;20025;-74
2023/11/29 04:37:37;;;;;;;16.98;10.75;;;2.70;99.90;;;;;;4149350;28;20056;-74
2023/11/29 04:39:37;;;;;;;16.98;9.60;;;2.70;99.90;;;;;;4153753;28;20029;-74
2023/11/29 04:41:40;;;;;;;15.27;9.75;;;2.70;99.90;;;;;;4150106;28;20030;-74
2023/11/29 04:43:41;;;;;;;15.48;9.10;;;2.70;99.90;;;;;;4149358;28;20073;-75
2023/11/29 04:45:42;;;;;;;13.50;8.80;;;2.70;99.90;;;;;;4150384;28;20034;-74
2023/11/29 04:47:42;;;;;;;17.80;9.95;;;2.80;99.90;;;;;;4154765;28;20026;-74
2023/11/29 04:49:43;;;;;;;18.90;9.10;;;2.70;99.90;;;;;;4152772;28;20116;-74
2023/11/29 04:51:43;;;;;;;15.93;9.30;;;2.70;99.90;;;;;;4148098;28;20434;-75
2023/11/29 04:53:44;;;;;;;16.48;10.13;;;2.70;99.90;;;;;;4152414;28;20116;-74
2023/11/29 04:55:44;;;;;;;15.45;8.80;;;2.80;99.90;;;;;;4149629;28;20026;-75
2023/11/29 04:57:45;;;;;;;15.55;9.18;;;2.70;99.90;;;;;;4155431;28;20064;-75
2023/11/29 04:59:46;;;;;;;15.15;9.30;;;2.70;99.90;;;;;;4151210;28;20084;-75
2023/11/29 05:01:46;;;;;;;15.63;9.82;;;2.70;99.90;;;;;;4150989;28;20571;-74
2023/11/29 05:03:47;;;;;;;16.48;10.18;;;2.80;99.90;;;;;;4147294;28;20037;-75
2023/11/29 05:05:48;;;;;;;17.90;10.00;;;2.70;99.90;;;;;;4150532;28;21070;-74
2023/11/29 05:07:49;;;;;;;17.70;9.73;;;2.70;99.90;;;;;;4151145;28;20021;-76
2023/11/29 05:09:53;;;;;;;15.65;9.75;;;2.70;99.90;;;;;;4146036;28;20126;-73
2023/11/29 05:11:53;;;;;;;14.80;9.43;;;2.70;99.90;;;;;;4151742;28;20711;-77
2023/11/29 05:13:54;;;;;;;17.13;9.73;;;2.70;99.90;;;;;;4150894;28;20041;-76
2023/11/29 05:15:54;;;;;;;16.35;10.10;;;2.70;99.90;;;;;;4149326;28;20491;-77
2023/11/29 05:17:55;;;;;;;19.23;10.27;;;2.70;99.90;;;;;;4152482;28;20096;-77
2023/11/29 05:19:56;;;;;;;19.65;11.95;;;2.70;99.90;;;;;;4152194;28;20038;-77
2023/11/29 05:21:56;;;;;;;20.75;10.88;;;2.70;99.90;;;;;;4154881;28;20610;-76
2023/11/29 05:23:57;;;;;;;18.10;10.23;;;2.70;99.90;;;;;;4147307;28;20034;-77
2023/11/29 05:25:57;;;;;;;15.73;9.63;;;2.70;99.90;;;;;;4153383;28;20544;-73
2023/11/29 05:27:58;;;;;;;17.77;10.82;;;2.60;99.90;;;;;;4148638;28;20041;-73
2023/11/29 05:29:58;;;;;;;17.33;9.93;;;2.70;99.90;;;;;;4151511;28;20052;-73
2023/11/29 05:31:59;;;;;;;16.70;10.07;;;2.70;99.90;;;;;;4146767;28;20084;-72
2023/11/29 05:34:01;;;;;;;18.80;10.20;;;2.70;99.90;;;;;;4155553;28;20487;-73
2023/11/29 05:36:02;;;;;;;16.30;9.98;;;2.70;99.90;;;;;;4149753;28;20038;-73
2023/11/29 05:38:02;;;;;;;18.25;10.15;;;2.60;99.90;;;;;;4155053;28;20038;-72
2023/11/29 05:40:08;;;;;;;17.17;9.35;;;2.70;99.90;;;;;;4150859;28;20040;-73
2023/11/29 05:42:08;;;;;;;17.63;10.52;;;2.70;99.90;;;;;;4113192;28;20616;-72
2023/11/29 05:44:09;;;;;;;20.20;10.73;;;2.70;99.90;;;;;;4145617;28;20048;-71
2023/11/29 05:46:09;;;;;;;20.98;11.18;;;2.70;99.90;;;;;;4149731;28;20036;-73
2023/11/29 05:48:10;;;;;;;17.92;10.18;;;2.80;99.90;;;;;;4152252;28;20040;-73
2023/11/29 05:50:11;;;;;;;16.58;9.57;;;2.80;99.90;;;;;;4147820;28;20391;-73
2023/11/29 05:52:11;;;;;;;19.88;10.52;;;2.80;99.90;;;;;;4148353;28;20064;-73
2023/11/29 05:54:12;;;;;;;15.10;8.70;;;2.80;99.90;;;;;;4149572;28;20817;-72
2023/11/29 05:56:12;;;;;;;18.08;9.88;;;2.80;99.90;;;;;;4143371;28;20033;-73
2023/11/29 05:58:14;;;;;;;18.35;9.95;;;2.80;99.90;;;;;;4146849;28;20122;-73
2023/11/29 06:00:18;;;;;;;17.15;9.52;;;2.80;99.90;;;;;;4143774;28;20551;-73
2023/11/29 06:02:19;;;;;;;17.08;9.80;;;2.80;99.90;;;;;;4153182;28;20026;-73
2023/11/29 06:04:19;;;;;;;17.95;9.35;;;2.80;99.90;;;;;;4148144;28;20534;-74
2023/11/29 06:06:20;;;;;;;18.35;9.65;;;2.80;99.90;;;;;;4148515;28;20026;-73
2023/11/29 06:08:21;;;;;;;19.45;8.98;;;2.90;99.90;;;;;;4150886;28;20479;-73
2023/11/29 06:10:22;;;;;;;17.40;9.52;;;2.90;99.90;;;;;;4147877;28;20041;-72
2023/11/29 06:12:23;;;;;;;20.95;9.88;;;2.90;99.90;;;;;;4149254;28;20406;-73
2023/11/29 06:14:25;;;;;;;15.55;9.38;;;2.90;99.90;;;;;;4145985;28;20045;-73
2023/11/29 06:16:25;;;;;;;14.65;8.88;;;3.00;99.90;;;;;;4150797;28;20053;-73
2023/11/29 06:18:26;;;;;;;15.75;9.38;;;3.00;99.90;;;;;;4144815;28;20413;-72
2023/11/29 06:20:27;;;;;;;18.73;9.63;;;3.10;99.90;;;;;;4152615;28;20433;-73
2023/11/29 06:22:28;;;;;;;17.85;8.60;;;3.00;99.90;;;;;;4150007;28;20502;-73
2023/11/29 06:24:31;;;;;;;16.55;8.88;;;3.00;99.90;;;;;;4154502;28;20037;-73
2023/11/29 06:26:32;;;;;;;16.83;9.60;;;3.10;99.90;;;;;;4153337;28;20032;-73
2023/11/29 06:28:38;;;;;;;19.48;9.63;;;3.10;99.90;;;;;;4148494;28;20040;-74
2023/11/29 06:30:41;;;;;;;16.33;8.70;;;3.20;99.90;;;;;;4161988;28;20053;-73
2023/11/29 06:32:41;;;;;;;13.32;8.52;;;3.30;99.90;;;;;;4164172;28;20586;-73
2023/11/29 06:34:44;;;;;;;18.48;9.27;;;3.30;99.90;;;;;;4154367;28;20025;-76
2023/11/29 06:36:44;;;;;;;14.55;7.95;;;3.30;99.90;;;;;;4169940;28;20040;-76
2023/11/29 06:38:45;;;;;;;13.95;7.68;;;3.30;99.90;;;;;;4169576;28;20037;-76
2023/11/29 06:40:45;;;;;;;16.58;8.45;;;3.30;99.90;;;;;;4167084;28;20085;-74
2023/11/29 06:42:49;;;;;;;12.57;7.38;;;3.30;99.90;;;;;;4163885;28;20029;-74
2023/11/29 06:44:52;;;;;;;12.75;6.50;;;3.30;99.90;;;;;;4148486;28;20056;-74
2023/11/29 06:46:54;;;;;;;15.43;7.70;;;3.30;99.90;;;;;;4166389;28;20446;-74
2023/11/29 06:48:55;;;;;;;14.20;7.53;;;3.40;99.90;;;;;;4146090;28;20037;-73
2023/11/29 06:50:56;;;;;;;13.90;7.85;;;3.40;99.90;;;;;;4162838;28;20029;-74
2023/11/29 06:52:58;;;;;;;13.15;6.97;;;3.30;99.90;;;;;;4146487;28;20096;-74
2023/11/29 06:54:59;;;;;;;14.18;7.60;;;3.30;99.90;;;;;;4168648;28;20512;-74
2023/11/29 06:57:00;;;;;;;15.55;7.75;;;3.30;99.90;;;;;;4160526;28;20339;-74
2023/11/29 06:59:04;;;;;;;12.43;7.68;;;3.30;99.90;;;;;;4150217;28;20037;-73
2023/11/29 07:01:07;;;;;;;11.95;6.93;;;3.30;99.90;;;;;;4165643;28;20052;-74
2023/11/29 07:03:08;;;;;;;11.13;6.25;;;3.30;99.90;;;;;;4169098;28;20041;-74
2023/11/29 07:05:09;;;;;;;11.13;7.15;;;3.30;99.90;;;;;;4163629;28;20032;-72
2023/11/29 07:07:10;;;;;;;10.52;6.93;;;3.30;99.90;;;;;;4165904;28;20080;-72
2023/11/29 07:09:13;;;;;;;10.80;6.40;;;3.30;99.90;;;;;;4167977;28;20403;-72
2023/11/29 07:11:14;;;;;;;11.80;6.65;;;3.30;99.90;;;;;;4168205;28;20037;-72
2023/11/29 07:13:15;;;;;;;10.25;6.57;;;3.40;99.90;;;;;;4144985;28;20417;-72
2023/11/29 07:15:16;;;;;;;10.27;6.05;;;3.30;99.90;;;;;;4170628;28;20102;-72
2023/11/29 07:17:17;;;;;;;10.32;5.82;;;3.30;99.90;;;;;;4171110;28;20042;-73
2023/11/29 07:19:19;;;;;;;12.40;7.15;;;3.40;99.90;;;;;;4169757;28;20040;-73
2023/11/29 07:21:19;;;;;;;14.20;6.93;;;3.40;99.90;;;;;;4154536;28;20509;-73
2023/11/29 07:23:22;;;;;;;9.73;5.70;;;3.30;99.90;;;;;;4165583;28;20033;-73
2023/11/29 07:25:23;;;;;;;9.70;6.43;;;3.40;99.90;;;;;;4168025;28;20053;-72
2023/11/29 07:27:23;;;;;;;11.25;6.55;;;3.40;99.90;;;;;;4154783;28;20491;-72
2023/11/29 07:29:24;;;;;;;9.15;6.22;;;3.40;99.90;;;;;;4149173;28;20072;-73
2023/11/29 07:31:25;;;;;;;10.57;6.18;;;3.40;99.90;;;;;;4150777;28;20053;-73
2023/11/29 07:33:25;;;;;;;10.60;6.30;;;3.40;99.90;;;;;;4173092;28;20037;-72
2023/11/29 07:35:26;;;;;;;8.68;5.97;;;3.40;99.90;;;;;;4165855;28;20414;-73
2023/11/29 07:37:26;;;;;;;11.45;6.50;;;3.40;99.90;;;;;;4172361;28;20124;-72
2023/11/29 07:39:27;;;;;;;8.75;5.20;;;3.40;99.90;;;;;;4151277;28;20429;-73
2023/11/29 07:41:28;;;;;;;9.85;5.85;;;3.40;99.90;;;;;;4171158;28;20035;-72
2023/11/29 07:43:28;;;;;;;8.32;5.43;;;3.40;99.90;;;;;;4149512;28;20387;-72
2023/11/29 07:45:29;;;;;;;10.85;5.72;;;3.40;99.90;;;;;;4170232;28;20029;-73
2023/11/29 07:47:29;;;;;;;9.63;6.05;;;3.40;99.90;;;;;;4169647;28;20052;-76
2023/11/29 07:49:30;;;;;;;7.20;5.30;;;3.40;99.90;;;;;;4152671;28;20481;-75
2023/11/29 07:51:31;;;;;;;13.55;6.32;;;3.40;99.90;;;;;;4156383;28;20534;-76
2023/11/29 07:53:32;;;;;;;7.68;5.30;;;3.40;99.90;;;;;;4172799;28;20044;-75
2023/11/29 07:55:34;;;;;;;9.68;5.05;;;3.40;99.90;;;;;;4149209;28;20448;-75
2023/11/29 07:57:35;;;;;;;8.40;5.53;;;3.40;99.90;;;;;;4157187;28;20506;-74
2023/11/29 07:59:36;;;;;;;7.80;5.13;;;3.50;99.90;;;;;;4154483;28;20057;-74
2023/11/29 08:01:37;;;;;;;9.18;5.20;;;3.40;99.90;;;;;;4153933;28;20083;-75
2023/11/29 08:03:38;;;;;;;10.38;5.10;;;3.50;99.90;;;;;;4162441;28;20041;-75
2023/11/29 08:05:40;;;;;;;7.35;4.53;;;3.50;99.90;;;;;;4169868;28;20112;-74
2023/11/29 08:07:40;;;;;;;9.43;5.65;;;3.50;99.90;;;;;;4167664;28;20059;-74
2023/11/29 08:09:44;;;;;;;9.80;5.22;;;3.50;99.90;;;;;;4168011;28;20517;-75
2023/11/29 08:11:45;;;;;;;7.25;4.40;;;3.50;99.90;;;;;;4168064;28;20061;-75
2023/11/29 08:13:46;;;;;;;7.70;5.00;;;3.60;99.90;;;;;;4171281;28;20044;-74
2023/11/29 08:15:46;;;;;;;7.88;4.70;;;3.60;99.90;;;;;;4170997;28;20041;-75
2023/11/29 08:17:47;;;;;;;6.28;4.32;;;3.60;99.90;;;;;;4153473;28;20471;-75
2023/11/29 08:19:48;;;;;;;8.00;5.10;;;3.60;99.90;;;;;;4169843;28;20029;-75
2023/11/29 08:21:49;;;;;;;8.18;5.35;;;3.60;99.90;;;;;;4169117;28;20029;-74
2023/11/29 08:23:49;;;;;;;7.05;5.28;;;3.60;99.90;;;;;;4162719;28;20391;-76
2023/11/29 08:25:50;;;;;;;9.93;5.13;;;3.60;99.90;;;;;;4170659;28;20039;-76
2023/11/29 08:27:51;;;;;;;8.38;5.00;;;3.60;99.90;;;;;;4152083;28;20499;-76
2023/11/29 08:29:52;;;;;;;6.35;4.28;;;3.70;99.90;;;;;;4168888;28;20509;-75
2023/11/29 08:31:53;;;;;;;6.68;4.22;;;3.70;99.90;;;;;;4168136;28;20487;-74
2023/11/29 08:33:53;;;;;;;9.00;4.38;;;3.80;99.90;;;;;;4169924;28;20033;-76
2023/11/29 08:35:54;;;;;;;6.57;4.50;;;3.80;99.90;;;;;;4170534;28;20119;-74
2023/11/29 08:37:55;;;;;;;5.85;3.92;;;3.80;99.90;;;;;;4170486;28;20030;-74
2023/11/29 08:39:56;;;;;;;6.15;4.30;;;3.90;99.90;;;;;;4171137;28;20053;-76
2023/11/29 08:41:57;;;;;;;6.47;4.35;;;3.90;99.90;;;;;;4168954;28;20040;-75
2023/11/29 08:43:57;;;;;;;5.88;4.22;;;3.90;99.90;;;;;;4169615;28;20044;-75
2023/11/29 08:45:58;;;;;;;6.47;4.53;;;3.90;99.90;;;;;;4168175;28;20029;-75
2023/11/29 08:47:59;;;;;;;8.32;4.38;;;4.00;99.90;;;;;;4169601;28;20120;-75
2023/11/29 08:50:00;;;;;;;6.72;4.32;;;4.00;99.90;;;;;;4158014;28;20419;-75
2023/11/29 08:52:01;;;;;;;7.65;4.90;;;4.00;99.90;;;;;;4161062;28;20156;-75
2023/11/29 08:54:01;;;;;;;9.52;4.30;;;4.00;99.90;;;;;;4158018;28;20036;-73
2023/11/29 08:56:11;;;;;;;9.23;5.55;;;4.00;99.90;;;;;;4150982;28;20109;-75
2023/11/29 08:58:13;;;;;;;9.25;4.75;;;4.00;99.90;;;;;;4167287;28;20437;-75
2023/11/29 09:00:14;;;;;;;8.40;4.90;;;4.00;99.90;;;;;;4147947;28;21612;-75
2023/11/29 09:02:15;;;;;;;8.48;5.30;;;3.90;99.90;;;;;;4151599;28;20399;-76
2023/11/29 09:04:15;;;;;;;10.05;5.70;;;3.90;99.90;;;;;;4168858;28;20029;-75
2023/11/29 09:06:16;;;;;;;11.15;5.68;;;3.90;99.90;;;;;;4165274;28;20040;-75
2023/11/29 09:08:18;;;;;;;7.57;4.68;;;3.90;99.90;;;;;;4168979;28;20419;-75
2023/11/29 09:10:18;;;;;;;7.20;4.60;;;3.90;99.90;;;;;;4150083;28;20032;-75
2023/11/29 09:12:21;;;;;;;8.25;4.32;;;3.90;99.90;;;;;;4132730;28;20624;-75
2023/11/29 09:14:21;;;;;;;8.75;4.72;;;4.00;99.90;;;;;;4167323;28;20033;-75
2023/11/29 09:16:22;;;;;;;10.00;5.65;;;3.90;99.90;;;;;;4151979;28;20120;-74
2023/11/29 09:18:23;;;;;;;9.98;5.00;;;4.00;99.90;;;;;;4167812;28;20071;-75
2023/11/29 09:20:25;;;;;;;9.23;4.80;;;4.00;99.90;;;;;;4149138;28;20123;-75
2023/11/29 09:22:26;;;;;;;6.93;4.85;;;4.00;99.90;;;;;;4168326;28;20033;-76
2023/11/29 09:24:27;;;;;;;6.47;4.05;;;4.10;99.90;;;;;;4149304;28;20133;-76
2023/11/29 09:26:28;;;;;;;7.70;4.25;;;4.00;99.90;;;;;;4147898;28;20065;-76
2023/11/29 09:28:29;;;;;;;6.80;4.50;;;4.00;99.90;;;;;;4151279;28;20414;-76
2023/11/29 09:30:30;;;;;;;9.25;5.35;;;4.00;99.90;;;;;;4149301;28;20057;-75
2023/11/29 09:32:32;;;;;;;7.63;5.15;;;4.10;99.90;;;;;;4153934;28;20424;-75
2023/11/29 09:34:33;;;;;;;9.43;4.85;;;4.10;99.90;;;;;;4161032;28;20546;-75
2023/11/29 09:36:33;;;;;;;10.52;4.85;;;4.10;99.90;;;;;;4151252;28;20073;-75
2023/11/29 09:38:34;;;;;;;9.40;5.30;;;4.10;99.90;;;;;;4152978;28;20037;-75
2023/11/29 09:40:35;;;;;;;8.25;5.32;;;4.00;99.90;;;;;;4148865;28;20455;-75
2023/11/29 09:42:36;;;;;;;7.25;4.90;;;4.10;99.90;;;;;;4152748;28;20033;-75
2023/11/29 09:44:39;;;;;;;7.43;4.78;;;4.10;99.90;;;;;;4149915;28;20042;-74
2023/11/29 09:46:40;;;;;;;8.38;4.93;;;4.10;99.90;;;;;;4150623;28;20040;-76
2023/11/29 09:48:42;;;;;;;10.32;4.80;;;4.10;99.90;;;;;;4152475;28;20506;-76
2023/11/29 09:50:46;;;;;;;7.60;4.70;;;4.10;99.90;;;;;;4149714;28;20683;-75
2023/11/29 09:52:47;;;;;;;5.97;4.43;;;4.10;99.90;;;;;;4142014;28;20288;-76
2023/11/29 09:54:48;;;;;;;6.22;4.43;;;4.10;99.90;;;;;;4149654;28;20038;-74
2023/11/29 09:56:49;;;;;;;10.30;4.78;;;4.10;99.90;;;;;;4151147;28;20056;-75
2023/11/29 09:58:50;;;;;;;10.80;5.07;;;4.20;99.90;;;;;;4147287;28;20580;-75
2023/11/29 10:00:51;;;;;;;7.80;4.47;;;4.20;99.90;;;;;;4146755;28;20052;-75
2023/11/29 10:02:51;;;;;;;8.57;4.53;;;4.20;99.90;;;;;;4153025;28;20037;-76
2023/11/29 10:04:53;;;;;;;5.20;4.10;;;4.20;99.90;;;;;;4152325;28;20045;-75
2023/11/29 10:06:54;;;;;;;5.45;3.80;;;4.30;99.90;;;;;;4151405;28;20030;-76
2023/11/29 10:08:55;;;;;;;5.78;3.88;;;4.30;99.90;;;;;;4150673;28;20038;-75
2023/11/29 10:10:56;;;;;;;6.65;4.20;;;4.30;99.90;;;;;;4146534;28;20099;-75
2023/11/29 10:12:56;;;;;;;6.90;4.70;;;4.30;99.90;;;;;;4152266;28;20079;-75
2023/11/29 10:14:57;;;;;;;6.30;4.07;;;4.30;99.90;;;;;;4151610;28;20468;-75
2023/11/29 10:16:58;;;;;;;6.28;4.18;;;4.30;99.90;;;;;;4147928;28;20030;-75
2023/11/29 10:19:02;;;;;;;5.95;3.60;;;4.30;99.90;;;;;;4150694;28;20096;-75
2023/11/29 10:21:05;;;;;;;7.45;4.25;;;4.40;99.90;;;;;;4151954;28;20037;-75
2023/11/29 10:23:05;;;;;;;7.22;4.57;;;4.30;99.90;;;;;;4149029;28;20043;-75
2023/11/29 10:25:20;;;;;;;5.95;3.55;;;4.40;99.90;;;;;;4163700;28;20518;-75
2023/11/29 10:27:24;;;;;;;6.25;3.22;;;4.30;99.90;;;;;;4149611;28;20499;-75
2023/11/29 10:29:26;;;;;;;5.25;2.90;;;4.20;99.90;;;;;;4149831;28;20042;-75
2023/11/29 10:31:27;;;;;;;;;;;4.20;99.90;;;;;;4168864;28;20128;-75